createdAt,value
2022-10-09T05:06:18.666Z,5.50
2022-10-09T05:08:46.969Z,5.50
2022-10-09T05:11:16.906Z,5.50
2022-10-09T05:13:46.674Z,5.50
2022-10-09T05:16:17.156Z,5.40
2022-10-09T05:18:46.183Z,5.30
2022-10-09T05:21:14.197Z,5.30
2022-10-09T05:23:44.107Z,5.30
2022-10-09T05:26:14.767Z,5.30
2022-10-09T05:28:43.423Z,5.30
2022-10-09T05:31:17.656Z,5.40
2022-10-09T12:14:26.510Z,17.00
2022-10-09T12:16:54.647Z,17.00
2022-10-09T12:19:25.825Z,16.70
2022-10-09T12:22:00.417Z,16.90
2022-10-09T12:24:32.655Z,17.70
2022-10-09T12:27:04.215Z,18.60
2022-10-09T12:29:40.591Z,18.80
2022-10-09T12:32:16.936Z,18.70
2022-10-09T12:34:48.595Z,18.70
2022-10-09T12:37:19.571Z,18.60
2022-10-09T12:39:50.211Z,18.80
2022-10-09T12:42:22.500Z,19.30
2022-10-09T12:44:55.070Z,19.10
2022-10-09T12:47:26.770Z,19.30
2022-10-09T12:50:05.005Z,19.50
2022-10-09T12:52:33.304Z,19.60
2022-10-09T12:55:03.506Z,19.80
2022-10-09T12:57:31.655Z,20.00
2022-10-09T13:00:01.310Z,20.20
2022-10-09T13:02:29.339Z,20.10
2022-10-09T13:05:00.799Z,20.30
2022-10-09T13:07:32.420Z,20.40
2022-10-09T13:10:04.747Z,20.30
2022-10-09T13:12:33.854Z,20.60
2022-10-09T13:15:05.668Z,21.10
2022-10-09T13:17:36.410Z,21.40
2022-10-09T13:20:25.243Z,21.10
2022-10-09T13:22:58.197Z,21.20
2022-10-09T13:25:27.268Z,21.20
2022-10-09T13:27:55.432Z,21.40
2022-10-09T13:30:25.143Z,21.50
2022-10-09T13:32:53.131Z,21.90
2022-10-09T13:35:21.213Z,22.80
2022-10-09T13:37:49.390Z,23.10
2022-10-09T13:40:21.715Z,23.30
2022-10-09T13:42:54.742Z,23.10
2022-10-09T13:45:24.776Z,23.00
2022-10-09T13:47:53.083Z,22.90
2022-10-09T13:50:21.401Z,23.40
2022-10-09T13:52:49.480Z,23.10
2022-10-09T13:55:17.876Z,23.10
2022-10-09T13:57:45.906Z,23.00
2022-10-09T14:00:14.827Z,23.20
2022-10-09T14:02:44.359Z,23.60
2022-10-09T14:05:12.349Z,23.80
2022-10-09T14:07:40.386Z,23.80
2022-10-09T14:10:09.176Z,23.30
2022-10-09T14:12:37.485Z,23.70
2022-10-09T14:15:06.369Z,23.60
2022-10-09T14:17:34.324Z,23.80
2022-10-09T14:20:03.774Z,23.80
2022-10-09T14:22:31.697Z,23.70
2022-10-09T14:24:59.639Z,23.40
2022-10-09T14:27:27.945Z,23.50
2022-10-09T14:29:57.306Z,23.70
2022-10-09T14:32:25.427Z,24.20
2022-10-09T14:34:53.809Z,24.10
2022-10-09T14:37:40.461Z,23.80
2022-10-09T14:40:10.815Z,24.10
2022-10-09T14:42:39.108Z,23.80
2022-10-09T14:45:09.141Z,24.10
2022-10-09T14:47:37.228Z,23.70
2022-10-09T14:50:05.619Z,23.50
2022-10-09T14:52:35.116Z,23.60
2022-10-09T14:55:03.279Z,23.60
2022-10-09T14:57:35.163Z,23.60
2022-10-09T15:00:04.639Z,23.70
2022-10-09T15:02:32.672Z,23.90
2022-10-09T15:05:00.644Z,24.10
2022-10-09T15:07:28.621Z,24.10
2022-10-09T15:09:58.001Z,23.30
2022-10-09T15:12:25.910Z,23.70
2022-10-09T15:14:53.861Z,24.10
2022-10-09T15:17:21.912Z,23.60
2022-10-09T15:19:49.932Z,23.50
2022-10-09T15:22:17.878Z,23.70
2022-10-09T15:24:45.779Z,23.80
2022-10-09T15:27:15.072Z,23.60
2022-10-09T15:29:43.031Z,23.40
2022-10-09T15:32:10.967Z,23.40
2022-10-09T15:34:41.115Z,23.30
2022-10-09T15:37:09.337Z,22.70
2022-10-09T15:39:37.411Z,22.00
2022-10-09T15:42:05.657Z,21.80
2022-10-09T15:44:35.047Z,21.50
2022-10-09T15:47:03.041Z,21.30
2022-10-09T15:49:31.425Z,20.60
2022-10-09T15:51:59.521Z,20.60
2022-10-09T15:54:27.806Z,20.70
2022-10-09T15:56:55.829Z,20.40
2022-10-09T15:59:23.771Z,20.20
2022-10-09T16:01:53.211Z,19.70
2022-10-09T16:04:21.242Z,19.20
2022-10-09T16:06:49.351Z,19.10
2022-10-09T16:09:17.355Z,19.00
2022-10-09T16:11:45.315Z,19.10
2022-10-09T16:14:13.263Z,18.80
2022-10-09T16:16:41.259Z,18.40
2022-10-09T16:19:10.619Z,18.10
2022-10-09T16:21:38.691Z,17.20
2022-10-09T16:24:06.968Z,16.50
2022-10-09T16:26:34.930Z,15.80
2022-10-09T16:29:02.997Z,15.30
2022-10-09T16:31:34.879Z,14.90
2022-10-09T16:34:04.446Z,14.40
2022-10-09T16:36:33.938Z,14.20
2022-10-09T16:39:01.926Z,13.90
2022-10-09T16:41:29.961Z,13.70
2022-10-09T16:44:00.269Z,13.60
2022-10-09T16:46:31.660Z,13.40
2022-10-09T16:49:00.959Z,13.30
2022-10-09T16:51:31.374Z,13.10
2022-10-09T16:54:02.999Z,13.00
2022-10-09T16:56:33.289Z,12.80
2022-10-09T16:59:03.699Z,12.70
2022-10-09T17:01:32.773Z,12.60
2022-10-09T17:04:01.354Z,12.50
2022-10-09T17:06:29.312Z,12.40
2022-10-09T17:08:59.137Z,12.30
2022-10-09T17:11:30.566Z,12.20
2022-10-09T17:13:59.420Z,12.20
2022-10-09T17:16:29.264Z,12.10
2022-10-09T17:18:57.871Z,12.00
2022-10-09T17:21:29.299Z,12.00
2022-10-09T17:24:02.890Z,11.90
2022-10-09T17:26:32.189Z,11.80
2022-10-09T17:29:00.684Z,11.70
2022-10-09T17:31:29.842Z,11.70
2022-10-09T17:33:59.934Z,11.60
2022-10-09T17:36:33.572Z,11.60
2022-10-09T17:39:01.626Z,11.40
2022-10-09T17:41:31.368Z,11.40
2022-10-09T17:43:59.728Z,11.30
2022-10-09T17:46:28.986Z,11.20
2022-10-09T17:48:57.149Z,11.20
2022-10-09T17:51:26.881Z,11.20
2022-10-09T17:56:26.210Z,11.00
2022-10-09T17:58:56.868Z,11.00
2022-10-09T18:01:24.856Z,11.00
2022-10-09T18:03:53.066Z,10.90
2022-10-09T18:06:23.883Z,10.80
2022-10-09T18:08:54.350Z,10.80
2022-10-09T18:11:23.669Z,10.70
2022-10-09T18:13:52.110Z,10.60
2022-10-09T18:16:35.322Z,10.60
2022-10-09T18:19:06.780Z,10.50
2022-10-09T18:21:35.397Z,10.50
2022-10-09T18:24:03.465Z,10.40
2022-10-09T18:26:31.544Z,10.50
2022-10-09T18:28:59.760Z,10.50
2022-10-09T18:31:30.046Z,10.40
2022-10-09T18:33:59.345Z,10.40
2022-10-09T18:36:31.550Z,10.30
2022-10-09T18:39:03.225Z,10.30
2022-10-09T18:41:31.296Z,10.20
2022-10-09T18:44:01.059Z,10.20
2022-10-09T18:46:35.722Z,10.20
2022-10-09T18:49:04.361Z,10.20
2022-10-09T18:51:32.712Z,10.20
2022-10-09T18:54:03.119Z,10.10
2022-10-09T18:56:33.659Z,10.00
2022-10-09T18:59:04.605Z,10.10
2022-10-09T19:01:34.222Z,10.10
2022-10-09T19:04:02.158Z,10.10
2022-10-09T19:06:30.138Z,10.10
2022-10-09T19:09:00.850Z,10.00
2022-10-09T19:11:29.640Z,9.90
2022-10-09T19:13:59.722Z,10.00
2022-10-09T19:16:27.811Z,9.90
2022-10-09T19:18:57.199Z,9.90
2022-10-09T19:21:25.200Z,9.90
2022-10-09T19:23:54.870Z,9.80
2022-10-09T19:26:23.601Z,9.80
2022-10-09T19:28:51.960Z,9.70
2022-10-09T19:31:19.989Z,9.70
2022-10-09T19:33:47.909Z,9.60
2022-10-09T19:36:17.364Z,9.70
2022-10-09T19:38:46.532Z,9.70
2022-10-09T19:41:16.464Z,9.70
2022-10-09T19:43:44.909Z,9.80
2022-10-09T19:46:17.235Z,9.80
2022-10-09T19:48:45.841Z,9.90
2022-10-09T19:51:16.853Z,10.00
2022-10-09T19:53:46.400Z,9.90
2022-10-09T19:56:16.747Z,10.00
2022-10-09T19:58:46.230Z,10.00
2022-10-09T20:01:15.751Z,10.00
2022-10-09T20:03:44.243Z,10.00
2022-10-09T20:06:12.619Z,10.00
2022-10-09T20:08:42.496Z,10.10
2022-10-09T20:11:13.836Z,10.00
2022-10-09T20:13:43.359Z,10.00
2022-10-09T20:16:13.571Z,10.00
2022-10-09T20:18:42.562Z,9.90
2022-10-09T20:21:11.573Z,9.90
2022-10-09T20:23:39.629Z,9.90
2022-10-09T20:26:09.761Z,9.80
2022-10-09T20:28:39.722Z,9.80
2022-10-09T20:31:11.755Z,9.80
2022-10-09T20:33:40.344Z,9.80
2022-10-09T20:36:09.245Z,9.70
2022-10-09T20:38:37.477Z,9.70
2022-10-09T20:41:07.902Z,9.60
2022-10-09T20:43:36.379Z,9.60
2022-10-09T20:46:09.094Z,9.50
2022-10-09T20:48:38.036Z,9.40
2022-10-09T20:51:06.484Z,9.40
2022-10-09T20:53:34.801Z,9.20
2022-10-09T20:56:07.189Z,9.10
2022-10-09T20:58:36.319Z,9.10
2022-10-09T21:01:07.605Z,9.10
2022-10-09T21:03:36.852Z,9.00
2022-10-09T21:06:05.417Z,9.00
2022-10-09T21:08:33.931Z,9.00
2022-10-09T21:11:05.185Z,8.90
2022-10-09T21:13:33.611Z,8.70
2022-10-09T21:16:02.009Z,8.60
2022-10-09T21:18:31.311Z,8.70
2022-10-09T21:21:03.517Z,8.70
2022-10-09T21:23:31.480Z,8.70
2022-10-09T21:25:59.711Z,8.70
2022-10-09T21:28:27.930Z,8.60
2022-10-09T21:30:56.084Z,8.70
2022-10-09T21:33:24.398Z,8.60
2022-10-09T21:35:55.409Z,8.60
2022-10-09T21:38:24.274Z,8.50
2022-10-09T21:40:52.651Z,8.50
2022-10-09T21:43:20.564Z,8.50
2022-10-09T21:45:51.940Z,8.50
2022-10-09T21:48:20.009Z,8.50
2022-10-09T21:50:48.314Z,8.50
2022-10-09T21:53:17.686Z,8.40
2022-10-09T21:55:45.623Z,8.20
2022-10-09T21:58:13.622Z,8.20
2022-10-09T22:00:41.869Z,8.10
2022-10-09T22:03:09.876Z,8.10
2022-10-09T22:05:40.899Z,8.10
2022-10-09T22:08:08.913Z,8.00
2022-10-09T22:10:38.303Z,8.00
2022-10-09T22:13:06.269Z,8.10
2022-10-09T22:15:34.321Z,8.20
2022-10-09T22:18:02.298Z,8.20
2022-10-09T22:20:30.503Z,8.10
2022-10-09T22:22:58.630Z,8.10
2022-10-09T22:25:26.756Z,8.00
2022-10-09T22:27:56.396Z,8.00
2022-10-09T22:30:24.379Z,7.90
2022-10-09T22:32:54.359Z,7.90
2022-10-09T22:35:23.137Z,7.90
2022-10-09T22:37:51.250Z,7.80
2022-10-09T22:40:19.470Z,7.80
2022-10-09T22:42:47.786Z,7.80
2022-10-09T22:45:17.553Z,7.80
2022-10-09T22:47:47.893Z,7.80
2022-10-09T22:50:16.068Z,7.80
2022-10-09T22:52:44.045Z,7.80
2022-10-09T22:55:12.057Z,7.70
2022-10-09T22:57:40.027Z,7.60
2022-10-09T23:00:09.209Z,7.70
2022-10-09T23:02:38.547Z,7.60
2022-10-09T23:05:07.464Z,7.60
2022-10-09T23:07:35.390Z,7.60
2022-10-09T23:10:03.332Z,7.50
2022-10-09T23:12:31.294Z,7.50
2022-10-09T23:14:59.294Z,7.60
2022-10-09T23:17:27.142Z,7.60
2022-10-09T23:19:56.595Z,7.60
2022-10-09T23:22:24.615Z,7.50
2022-10-09T23:24:52.507Z,7.40
2022-10-09T23:27:20.453Z,7.40
2022-10-09T23:29:48.541Z,7.40
2022-10-09T23:32:16.509Z,7.30
2022-10-09T23:34:44.642Z,7.40
2022-10-09T23:37:14.271Z,7.40
2022-10-09T23:39:42.644Z,7.30
2022-10-09T23:42:10.589Z,7.30
2022-10-09T23:44:38.499Z,7.30
2022-10-09T23:47:06.519Z,7.30
2022-10-09T23:49:34.447Z,7.20
2022-10-09T23:52:02.554Z,7.10
2022-10-09T23:54:31.951Z,7.00
2022-10-09T23:56:59.921Z,6.90
2022-10-09T23:59:28.016Z,6.90
